Terminal Aerodrome Forecast
Issued by NWS Binghamton, NY

Home | Current Version | Previous Version | Text Only | Print | Product List | Glossary On
Versions: 1 2 3 4 5 6 7 8 9 10 11 12 13 14 15 16 17
000
FTUS41 KBGM 261700
TAFSYR
TAF
KSYR 261727Z 2618/2718 22006KT P6SM BKN050
     FM270000 17004KT P6SM SCT050 OVC120
     FM270500 22004KT P6SM -SHRA OVC050
     FM271100 25008KT P6SM OVC050
      TEMPO 2711/2715 OVC030
     FM271500 27007KT P6SM BKN035=

USA.gov is the U.S. government's official web portal to all federal, state and local government web resources and services.